sensor_id;sensor_type;location;lat;lon;timestamp;pressure;altitude;pressure_sealevel;temperature;humidity
59513;BME280;45330;51.634;5.562;2023-07-09T00:01:54;101603.53;;;22.18;100.00
59513;BME280;45330;51.634;5.562;2023-07-09T00:04:19;101593.06;;;22.15;100.00
59513;BME280;45330;51.634;5.562;2023-07-09T00:06:45;101576.53;;;22.09;100.00
59513;BME280;45330;51.634;5.562;2023-07-09T00:09:15;101599.81;;;22.22;100.00
59513;BME280;45330;51.634;5.562;2023-07-09T00:11:42;101601.34;;;22.27;100.00
59513;BME280;45330;51.634;5.562;2023-07-09T00:14:12;101584.00;;;22.20;100.00
59513;BME280;45330;51.634;5.562;2023-07-09T00:16:39;101583.91;;;22.22;100.00
59513;BME280;45330;51.634;5.562;2023-07-09T00:19:17;101604.75;;;22.31;100.00
59513;BME280;45330;51.634;5.562;2023-07-09T00:21:44;101603.16;;;22.27;100.00
59513;BME280;45330;51.634;5.562;2023-07-09T00:24:11;101612.59;;;22.34;100.00
59513;BME280;45330;51.634;5.562;2023-07-09T00:26:38;101610.13;;;22.30;100.00
59513;BME280;45330;51.634;5.562;2023-07-09T00:29:08;101612.97;;;22.25;100.00
59513;BME280;45330;51.634;5.562;2023-07-09T00:31:35;101582.88;;;22.05;100.00
59513;BME280;45330;51.634;5.562;2023-07-09T00:34:04;101589.31;;;22.00;100.00
59513;BME280;45330;51.634;5.562;2023-07-09T00:36:30;101594.63;;;21.98;100.00
59513;BME280;45330;51.634;5.562;2023-07-09T00:38:57;101588.69;;;21.93;100.00
59513;BME280;45330;51.634;5.562;2023-07-09T00:41:26;101602.72;;;21.95;100.00
59513;BME280;45330;51.634;5.562;2023-07-09T00:43:53;101612.47;;;21.95;100.00
59513;BME280;45330;51.634;5.562;2023-07-09T00:48:45;101597.47;;;21.73;100.00
59513;BME280;45330;51.634;5.562;2023-07-09T00:51:15;101604.53;;;21.72;100.00
59513;BME280;45330;51.634;5.562;2023-07-09T00:53:42;101625.38;;;21.82;100.00
59513;BME280;45330;51.634;5.562;2023-07-09T00:56:13;101620.31;;;21.75;100.00
59513;BME280;45330;51.634;5.562;2023-07-09T00:58:40;101621.19;;;21.54;100.00
59513;BME280;45330;51.634;5.562;2023-07-09T01:01:13;101623.94;;;21.27;100.00
59513;BME280;45330;51.634;5.562;2023-07-09T01:03:45;101601.63;;;21.11;100.00
59513;BME280;45330;51.634;5.562;2023-07-09T01:06:11;101626.09;;;21.17;100.00
59513;BME280;45330;51.634;5.562;2023-07-09T01:08:39;101607.00;;;21.09;100.00
59513;BME280;45330;51.634;5.562;2023-07-09T01:11:17;101625.78;;;21.25;100.00
59513;BME280;45330;51.634;5.562;2023-07-09T01:13:54;101622.16;;;21.28;100.00
59513;BME280;45330;51.634;5.562;2023-07-09T01:16:25;101621.19;;;21.30;100.00
59513;BME280;45330;51.634;5.562;2023-07-09T01:18:53;101602.47;;;21.13;100.00
59513;BME280;45330;51.634;5.562;2023-07-09T01:21:18;101606.81;;;21.14;100.00
59513;BME280;45330;51.634;5.562;2023-07-09T01:23:45;101622.91;;;21.31;100.00
59513;BME280;45330;51.634;5.562;2023-07-09T01:26:16;101617.31;;;21.17;100.00
59513;BME280;45330;51.634;5.562;2023-07-09T01:28:42;101618.03;;;21.20;100.00
59513;BME280;45330;51.634;5.562;2023-07-09T01:31:12;101607.97;;;21.06;100.00
59513;BME280;45330;51.634;5.562;2023-07-09T01:33:39;101604.41;;;21.07;100.00
59513;BME280;45330;51.634;5.562;2023-07-09T01:36:09;101607.91;;;21.08;100.00
59513;BME280;45330;51.634;5.562;2023-07-09T01:38:35;101626.59;;;21.27;100.00
59513;BME280;45330;51.634;5.562;2023-07-09T01:41:01;101633.72;;;21.25;100.00
59513;BME280;45330;51.634;5.562;2023-07-09T01:43:28;101632.81;;;21.26;100.00
59513;BME280;45330;51.634;5.562;2023-07-09T01:45:54;101633.63;;;21.28;100.00
59513;BME280;45330;51.634;5.562;2023-07-09T01:48:24;101633.84;;;21.22;100.00
59513;BME280;45330;51.634;5.562;2023-07-09T01:50:50;101628.81;;;21.16;100.00
59513;BME280;45330;51.634;5.562;2023-07-09T01:53:17;101624.09;;;21.00;100.00
59513;BME280;45330;51.634;5.562;2023-07-09T01:55:44;101630.94;;;21.06;100.00
59513;BME280;45330;51.634;5.562;2023-07-09T01:58:10;101646.63;;;21.11;100.00
59513;BME280;45330;51.634;5.562;2023-07-09T02:00:36;101644.16;;;21.06;100.00
59513;BME280;45330;51.634;5.562;2023-07-09T02:03:03;101626.16;;;20.92;100.00
59513;BME280;45330;51.634;5.562;2023-07-09T02:05:33;101626.16;;;20.92;100.00
59513;BME280;45330;51.634;5.562;2023-07-09T02:07:59;101640.69;;;21.04;100.00
59513;BME280;45330;51.634;5.562;2023-07-09T02:10:25;101640.88;;;20.99;100.00
59513;BME280;45330;51.634;5.562;2023-07-09T02:12:50;101642.31;;;21.08;100.00
59513;BME280;45330;51.634;5.562;2023-07-09T02:15:16;101644.16;;;21.06;100.00
59513;BME280;45330;51.634;5.562;2023-07-09T02:17:42;101628.69;;;20.95;100.00
59513;BME280;45330;51.634;5.562;2023-07-09T02:20:09;101622.59;;;20.93;100.00
59513;BME280;45330;51.634;5.562;2023-07-09T02:22:35;101637.38;;;20.99;100.00
59513;BME280;45330;51.634;5.562;2023-07-09T02:25:01;101625.44;;;20.87;100.00
59513;BME280;45330;51.634;5.562;2023-07-09T02:27:27;101636.63;;;20.95;100.00
59513;BME280;45330;51.634;5.562;2023-07-09T02:29:53;101616.84;;;20.82;100.00
59513;BME280;45330;51.634;5.562;2023-07-09T02:32:21;101598.75;;;20.69;100.00
59513;BME280;45330;51.634;5.562;2023-07-09T02:34:47;101638.69;;;20.87;100.00
59513;BME280;45330;51.634;5.562;2023-07-09T02:37:15;101638.91;;;20.81;100.00
59513;BME280;45330;51.634;5.562;2023-07-09T02:39:42;101617.38;;;20.66;100.00
59513;BME280;45330;51.634;5.562;2023-07-09T02:42:09;101631.28;;;20.71;100.00
59513;BME280;45330;51.634;5.562;2023-07-09T02:44:36;101630.69;;;20.63;100.00
59513;BME280;45330;51.634;5.562;2023-07-09T02:47:01;101626.53;;;20.56;100.00
59513;BME280;45330;51.634;5.562;2023-07-09T02:49:27;101637.06;;;20.58;100.00
59513;BME280;45330;51.634;5.562;2023-07-09T02:51:52;101643.31;;;20.55;100.00
59513;BME280;45330;51.634;5.562;2023-07-09T02:54:17;101641.00;;;20.46;100.00
59513;BME280;45330;51.634;5.562;2023-07-09T02:56:43;101641.91;;;20.45;100.00
59513;BME280;45330;51.634;5.562;2023-07-09T02:59:09;101635.16;;;20.36;100.00
59513;BME280;45330;51.634;5.562;2023-07-09T03:01:34;101626.50;;;20.31;100.00
59513;BME280;45330;51.634;5.562;2023-07-09T03:04:01;101635.22;;;20.34;100.00
59513;BME280;45330;51.634;5.562;2023-07-09T03:06:29;101629.94;;;20.34;100.00
59513;BME280;45330;51.634;5.562;2023-07-09T03:08:54;101627.59;;;20.25;100.00
59513;BME280;45330;51.634;5.562;2023-07-09T03:11:21;101618.19;;;20.16;100.00
59513;BME280;45330;51.634;5.562;2023-07-09T03:13:47;101625.44;;;20.11;100.00
59513;BME280;45330;51.634;5.562;2023-07-09T03:16:13;101647.22;;;20.18;100.00
59513;BME280;45330;51.634;5.562;2023-07-09T03:18:39;101642.88;;;20.17;100.00
59513;BME280;45330;51.634;5.562;2023-07-09T03:21:05;101618.06;;;19.94;100.00
59513;BME280;45330;51.634;5.562;2023-07-09T03:23:31;101624.06;;;19.99;100.00
59513;BME280;45330;51.634;5.562;2023-07-09T03:25:56;101621.53;;;19.96;100.00
59513;BME280;45330;51.634;5.562;2023-07-09T03:28:22;101646.72;;;20.07;100.00
59513;BME280;45330;51.634;5.562;2023-07-09T03:30:48;101640.63;;;20.04;100.00
59513;BME280;45330;51.634;5.562;2023-07-09T03:33:16;101625.06;;;19.95;100.00
59513;BME280;45330;51.634;5.562;2023-07-09T03:35:41;101636.25;;;20.03;100.00
59513;BME280;45330;51.634;5.562;2023-07-09T03:38:08;101616.41;;;19.92;100.00
59513;BME280;45330;51.634;5.562;2023-07-09T03:40:34;101619.72;;;19.97;100.00
59513;BME280;45330;51.634;5.562;2023-07-09T03:43:00;101642.16;;;20.12;100.00
59513;BME280;45330;51.634;5.562;2023-07-09T03:45:26;101619.78;;;19.95;100.00
59513;BME280;45330;51.634;5.562;2023-07-09T03:47:51;101623.22;;;19.99;100.00
59513;BME280;45330;51.634;5.562;2023-07-09T03:50:17;101640.41;;;20.11;100.00
59513;BME280;45330;51.634;5.562;2023-07-09T03:52:42;101636.69;;;20.16;100.00
59513;BME280;45330;51.634;5.562;2023-07-09T03:55:08;101634.97;;;20.15;100.00
59513;BME280;45330;51.634;5.562;2023-07-09T03:57:34;101634.88;;;20.18;100.00
59513;BME280;45330;51.634;5.562;2023-07-09T04:00:02;101632.06;;;20.23;100.00
59513;BME280;45330;51.634;5.562;2023-07-09T04:02:28;101636.41;;;20.26;100.00
59513;BME280;45330;51.634;5.562;2023-07-09T04:04:53;101621.63;;;20.20;100.00
59513;BME280;45330;51.634;5.562;2023-07-09T04:07:19;101620.72;;;20.21;100.00
59513;BME280;45330;51.634;5.562;2023-07-09T04:09:44;101636.06;;;20.35;100.00
59513;BME280;45330;51.634;5.562;2023-07-09T04:12:10;101635.94;;;20.39;100.00
59513;BME280;45330;51.634;5.562;2023-07-09T04:14:35;101616.53;;;20.39;100.00
59513;BME280;45330;51.634;5.562;2023-07-09T04:17:00;101621.47;;;20.50;100.00
59513;BME280;45330;51.634;5.562;2023-07-09T04:19:26;101630.78;;;20.60;100.00
59513;BME280;45330;51.634;5.562;2023-07-09T04:21:51;101614.06;;;20.60;100.00
59513;BME280;45330;51.634;5.562;2023-07-09T04:24:18;101633.88;;;20.73;100.00
59513;BME280;45330;51.634;5.562;2023-07-09T04:26:44;101645.94;;;20.82;100.00
59513;BME280;45330;51.634;5.562;2023-07-09T04:29:10;101643.13;;;20.86;100.00
59513;BME280;45330;51.634;5.562;2023-07-09T04:31:36;101624.78;;;20.82;100.00
59513;BME280;45330;51.634;5.562;2023-07-09T04:34:03;101620.16;;;20.87;100.00
59513;BME280;45330;51.634;5.562;2023-07-09T04:36:28;101635.19;;;21.10;100.00
59513;BME280;45330;51.634;5.562;2023-07-09T04:38:54;101625.13;;;21.20;100.00
59513;BME280;45330;51.634;5.562;2023-07-09T04:41:19;101652.59;;;21.63;100.00
59513;BME280;45330;51.634;5.562;2023-07-09T04:43:44;101641.34;;;22.01;100.00
59513;BME280;45330;51.634;5.562;2023-07-09T04:46:10;101637.97;;;22.40;100.00
59513;BME280;45330;51.634;5.562;2023-07-09T04:48:35;101650.28;;;22.82;100.00
59513;BME280;45330;51.634;5.562;2023-07-09T04:51:00;101651.75;;;23.29;100.00
59513;BME280;45330;51.634;5.562;2023-07-09T04:53:26;101634.28;;;23.79;100.00
59513;BME280;45330;51.634;5.562;2023-07-09T04:55:51;101631.06;;;24.09;100.00
59513;BME280;45330;51.634;5.562;2023-07-09T04:58:17;101636.63;;;24.39;100.00
59513;BME280;45330;51.634;5.562;2023-07-09T05:00:44;101648.44;;;24.69;100.00
59513;BME280;45330;51.634;5.562;2023-07-09T05:03:09;101646.31;;;24.75;100.00
59513;BME280;45330;51.634;5.562;2023-07-09T05:05:34;101643.97;;;25.03;100.00
59513;BME280;45330;51.634;5.562;2023-07-09T05:08:00;101651.25;;;25.48;100.00
59513;BME280;45330;51.634;5.562;2023-07-09T05:10:26;101636.75;;;25.84;100.00
59513;BME280;45330;51.634;5.562;2023-07-09T05:12:53;101628.09;;;26.11;100.00
59513;BME280;45330;51.634;5.562;2023-07-09T05:15:21;101627.38;;;26.38;100.00
59513;BME280;45330;51.634;5.562;2023-07-09T05:17:47;101633.91;;;26.63;100.00
59513;BME280;45330;51.634;5.562;2023-07-09T05:20:14;101653.78;;;27.02;98.96
59513;BME280;45330;51.634;5.562;2023-07-09T05:22:39;101650.31;;;27.14;96.57
59513;BME280;45330;51.634;5.562;2023-07-09T05:25:05;101647.16;;;27.22;95.96
59513;BME280;45330;51.634;5.562;2023-07-09T05:27:30;101649.66;;;27.67;93.09
59513;BME280;45330;51.634;5.562;2023-07-09T05:29:56;101641.50;;;27.96;91.01
59513;BME280;45330;51.634;5.562;2023-07-09T05:32:21;101645.69;;;28.27;88.33
59513;BME280;45330;51.634;5.562;2023-07-09T05:34:46;101636.69;;;28.54;85.63
59513;BME280;45330;51.634;5.562;2023-07-09T05:37:12;101624.06;;;28.43;84.32
59513;BME280;45330;51.634;5.562;2023-07-09T05:39:37;101631.59;;;28.64;83.83
59513;BME280;45330;51.634;5.562;2023-07-09T05:42:02;101646.97;;;28.86;82.35
59513;BME280;45330;51.634;5.562;2023-07-09T05:44:28;101647.78;;;29.25;80.98
59513;BME280;45330;51.634;5.562;2023-07-09T05:46:53;101643.25;;;29.38;79.07
59513;BME280;45330;51.634;5.562;2023-07-09T05:49:19;101653.81;;;29.77;77.52
59513;BME280;45330;51.634;5.562;2023-07-09T05:51:44;101644.22;;;29.86;75.64
59513;BME280;45330;51.634;5.562;2023-07-09T05:54:09;101654.69;;;30.02;74.36
59513;BME280;45330;51.634;5.562;2023-07-09T05:56:36;101656.91;;;30.19;72.84
59513;BME280;45330;51.634;5.562;2023-07-09T05:59:01;101656.19;;;30.17;72.46
59513;BME280;45330;51.634;5.562;2023-07-09T06:01:27;101640.13;;;30.40;72.24
59513;BME280;45330;51.634;5.562;2023-07-09T06:03:52;101663.66;;;30.72;69.50
59513;BME280;45330;51.634;5.562;2023-07-09T06:06:19;101659.63;;;31.11;68.03
59513;BME280;45330;51.634;5.562;2023-07-09T06:08:45;101659.59;;;31.23;66.12
59513;BME280;45330;51.634;5.562;2023-07-09T06:11:12;101664.06;;;31.68;65.85
59513;BME280;45330;51.634;5.562;2023-07-09T06:13:38;101666.44;;;31.82;64.30
59513;BME280;45330;51.634;5.562;2023-07-09T06:16:03;101658.13;;;32.06;62.64
59513;BME280;45330;51.634;5.562;2023-07-09T06:18:30;101665.50;;;32.46;61.43
59513;BME280;45330;51.634;5.562;2023-07-09T06:21:00;101652.75;;;32.48;59.63
59513;BME280;45330;51.634;5.562;2023-07-09T06:23:25;101665.56;;;33.18;63.35
59513;BME280;45330;51.634;5.562;2023-07-09T06:25:51;101659.38;;;32.96;58.31
59513;BME280;45330;51.634;5.562;2023-07-09T06:28:21;101662.22;;;32.43;58.62
59513;BME280;45330;51.634;5.562;2023-07-09T06:30:47;101659.06;;;32.59;58.66
59513;BME280;45330;51.634;5.562;2023-07-09T06:33:14;101677.13;;;32.99;57.08
59513;BME280;45330;51.634;5.562;2023-07-09T06:35:51;101668.88;;;33.31;57.59
59513;BME280;45330;51.634;5.562;2023-07-09T06:38:17;101665.50;;;33.39;55.95
59513;BME280;45330;51.634;5.562;2023-07-09T06:40:43;101660.66;;;33.53;54.97
59513;BME280;45330;51.634;5.562;2023-07-09T06:43:09;101652.78;;;33.20;54.65
59513;BME280;45330;51.634;5.562;2023-07-09T06:45:34;101658.53;;;33.37;53.76
59513;BME280;45330;51.634;5.562;2023-07-09T06:48:00;101665.88;;;33.34;53.88
59513;BME280;45330;51.634;5.562;2023-07-09T06:50:26;101660.16;;;33.18;53.85
59513;BME280;45330;51.634;5.562;2023-07-09T06:52:51;101653.06;;;33.17;53.86
59513;BME280;45330;51.634;5.562;2023-07-09T06:55:17;101653.25;;;33.25;53.24
59513;BME280;45330;51.634;5.562;2023-07-09T06:57:42;101661.41;;;33.64;53.77
59513;BME280;45330;51.634;5.562;2023-07-09T07:00:08;101650.88;;;33.61;53.93
59513;BME280;45330;51.634;5.562;2023-07-09T07:02:34;101665.53;;;33.08;54.56
59513;BME280;45330;51.634;5.562;2023-07-09T07:04:59;101667.63;;;32.22;56.59
59513;BME280;45330;51.634;5.562;2023-07-09T07:07:25;101663.28;;;31.10;58.79
59513;BME280;45330;51.634;5.562;2023-07-09T07:09:50;101667.69;;;30.42;61.47
59513;BME280;45330;51.634;5.562;2023-07-09T07:12:27;101664.09;;;29.83;63.59
59513;BME280;45330;51.634;5.562;2023-07-09T07:14:53;101661.00;;;29.52;66.35
59513;BME280;45330;51.634;5.562;2023-07-09T07:17:19;101640.72;;;29.11;69.29
59513;BME280;45330;51.634;5.562;2023-07-09T07:19:44;101655.56;;;28.91;71.88
59513;BME280;45330;51.634;5.562;2023-07-09T07:22:10;101651.94;;;28.79;72.29
59513;BME280;45330;51.634;5.562;2023-07-09T07:24:35;101663.13;;;28.97;72.65
59513;BME280;45330;51.634;5.562;2023-07-09T07:27:01;101651.03;;;28.91;70.54
59513;BME280;45330;51.634;5.562;2023-07-09T07:29:26;101656.47;;;29.03;72.04
59513;BME280;45330;51.634;5.562;2023-07-09T07:31:53;101643.09;;;29.03;70.20
59513;BME280;45330;51.634;5.562;2023-07-09T07:34:19;101658.38;;;29.26;71.27
59513;BME280;45330;51.634;5.562;2023-07-09T07:36:44;101659.56;;;29.22;70.40
59513;BME280;45330;51.634;5.562;2023-07-09T07:39:09;101649.75;;;29.10;71.72
59513;BME280;45330;51.634;5.562;2023-07-09T07:41:35;101665.38;;;29.29;69.74
59513;BME280;45330;51.634;5.562;2023-07-09T07:44:00;101659.66;;;29.34;67.77
59513;BME280;45330;51.634;5.562;2023-07-09T07:46:25;101672.28;;;29.45;68.09
59513;BME280;45330;51.634;5.562;2023-07-09T07:48:51;101645.06;;;29.38;68.05
59513;BME280;45330;51.634;5.562;2023-07-09T07:51:16;101665.38;;;29.53;66.71
59513;BME280;45330;51.634;5.562;2023-07-09T07:53:41;101653.16;;;29.49;68.05
59513;BME280;45330;51.634;5.562;2023-07-09T07:56:07;101648.03;;;29.46;67.92
59513;BME280;45330;51.634;5.562;2023-07-09T07:58:34;101655.84;;;29.49;66.58
59513;BME280;45330;51.634;5.562;2023-07-09T08:00:59;101651.06;;;29.66;68.30
59513;BME280;45330;51.634;5.562;2023-07-09T08:03:25;101655.53;;;29.78;67.00
59513;BME280;45330;51.634;5.562;2023-07-09T08:05:51;101667.53;;;29.85;67.38
59513;BME280;45330;51.634;5.562;2023-07-09T08:08:16;101645.09;;;29.86;66.38
59513;BME280;45330;51.634;5.562;2023-07-09T08:10:42;101662.63;;;30.15;65.61
59513;BME280;45330;51.634;5.562;2023-07-09T08:13:07;101655.25;;;30.30;66.55
59513;BME280;45330;51.634;5.562;2023-07-09T08:15:34;101656.59;;;30.35;65.92
59513;BME280;45330;51.634;5.562;2023-07-09T08:17:59;101643.75;;;30.27;66.31
59513;BME280;45330;51.634;5.562;2023-07-09T08:20:24;101653.69;;;30.38;65.50
59513;BME280;45330;51.634;5.562;2023-07-09T08:22:50;101654.44;;;30.52;65.30
59513;BME280;45330;51.634;5.562;2023-07-09T08:25:15;101656.28;;;30.51;65.37
59513;BME280;45330;51.634;5.562;2023-07-09T08:27:41;101644.31;;;30.55;65.73
59513;BME280;45330;51.634;5.562;2023-07-09T08:30:07;101637.75;;;30.59;64.55
59513;BME280;45330;51.634;5.562;2023-07-09T08:32:32;101650.69;;;30.77;63.67
59513;BME280;45330;51.634;5.562;2023-07-09T08:34:57;101652.16;;;30.92;62.02
59513;BME280;45330;51.634;5.562;2023-07-09T08:37:23;101647.66;;;31.16;61.57
59513;BME280;45330;51.634;5.562;2023-07-09T08:39:48;101636.91;;;31.04;58.21
59513;BME280;45330;51.634;5.562;2023-07-09T08:42:18;101641.28;;;31.05;57.80
59513;BME280;45330;51.634;5.562;2023-07-09T08:48:00;101647.66;;;31.16;57.81
59513;BME280;45330;51.634;5.562;2023-07-09T08:50:39;101627.94;;;31.15;57.32
59513;BME280;45330;51.634;5.562;2023-07-09T08:53:31;101655.53;;;31.40;57.29
59513;BME280;45330;51.634;5.562;2023-07-09T08:55:58;101647.34;;;31.41;55.04
59513;BME280;45330;51.634;5.562;2023-07-09T08:58:31;101634.44;;;31.24;55.86
59513;BME280;45330;51.634;5.562;2023-07-09T09:01:01;101636.75;;;31.28;56.57
59513;BME280;45330;51.634;5.562;2023-07-09T09:03:49;101653.34;;;31.45;57.21
59513;BME280;45330;51.634;5.562;2023-07-09T09:06:30;101632.56;;;31.36;54.39
59513;BME280;45330;51.634;5.562;2023-07-09T09:09:43;101647.16;;;31.54;54.67
59513;BME280;45330;51.634;5.562;2023-07-09T09:12:16;101639.75;;;31.46;54.80
59513;BME280;45330;51.634;5.562;2023-07-09T09:14:49;101653.34;;;31.45;53.26
59513;BME280;45330;51.634;5.562;2023-07-09T09:17:20;101638.16;;;31.44;52.72
59513;BME280;45330;51.634;5.562;2023-07-09T09:20:04;101625.66;;;31.54;54.43
59513;BME280;45330;51.634;5.562;2023-07-09T09:25:37;101641.16;;;31.73;53.39
59513;BME280;45330;51.634;5.562;2023-07-09T09:28:04;101637.31;;;31.87;53.23
59513;BME280;45330;51.634;5.562;2023-07-09T09:30:30;101639.00;;;31.88;53.33
59513;BME280;45330;51.634;5.562;2023-07-09T09:33:06;101631.31;;;31.84;53.40
59513;BME280;45330;51.634;5.562;2023-07-09T09:35:40;101645.63;;;31.84;51.68
59513;BME280;45330;51.634;5.562;2023-07-09T09:38:17;101650.16;;;31.84;53.24
59513;BME280;45330;51.634;5.562;2023-07-09T09:40:43;101627.19;;;31.79;54.49
59513;BME280;45330;51.634;5.562;2023-07-09T09:43:14;101624.81;;;31.86;53.34
59513;BME280;45330;51.634;5.562;2023-07-09T09:45:41;101629.41;;;31.95;51.80
59513;BME280;45330;51.634;5.562;2023-07-09T09:48:18;101607.56;;;31.89;52.71
59513;BME280;45330;51.634;5.562;2023-07-09T09:50:45;101622.72;;;31.90;52.48
59513;BME280;45330;51.634;5.562;2023-07-09T09:53:18;101621.09;;;31.98;53.48
59513;BME280;45330;51.634;5.562;2023-07-09T09:55:44;101598.13;;;31.94;53.30
59513;BME280;45330;51.634;5.562;2023-07-09T09:58:14;101596.59;;;32.02;51.55
59513;BME280;45330;51.634;5.562;2023-07-09T10:00:46;101605.09;;;32.18;52.59
59513;BME280;45330;51.634;5.562;2023-07-09T10:03:13;101600.69;;;32.17;52.12
59513;BME280;45330;51.634;5.562;2023-07-09T10:05:43;101602.03;;;32.11;52.53
59513;BME280;45330;51.634;5.562;2023-07-09T10:08:17;101585.22;;;31.98;51.82
59513;BME280;45330;51.634;5.562;2023-07-09T10:10:46;101597.09;;;31.95;50.40
59513;BME280;45330;51.634;5.562;2023-07-09T10:13:33;101598.75;;;31.87;50.62
59513;BME280;45330;51.634;5.562;2023-07-09T10:16:07;101591.91;;;31.83;50.68
59513;BME280;45330;51.634;5.562;2023-07-09T10:18:53;101586.34;;;31.95;50.35
59513;BME280;45330;51.634;5.562;2023-07-09T10:21:37;101589.50;;;32.01;48.73
59513;BME280;45330;51.634;5.562;2023-07-09T10:24:24;101600.81;;;31.94;48.73
59513;BME280;45330;51.634;5.562;2023-07-09T10:39:50;101598.63;;;32.61;48.14
59513;BME280;45330;51.634;5.562;2023-07-09T10:45:26;101606.06;;;33.10;47.28
59513;BME280;45330;51.634;5.562;2023-07-09T10:48:02;101625.72;;;33.51;46.74
59513;BME280;45330;51.634;5.562;2023-07-09T10:50:38;101620.63;;;33.67;45.21
59513;BME280;45330;51.634;5.562;2023-07-09T10:53:32;101596.34;;;33.87;45.62
59513;BME280;45330;51.634;5.562;2023-07-09T10:56:08;101604.97;;;34.10;44.89
59513;BME280;45330;51.634;5.562;2023-07-09T10:59:14;101597.03;;;34.56;44.25
59513;BME280;45330;51.634;5.562;2023-07-09T11:01:35;101600.50;;;34.76;42.21
59513;BME280;45330;51.634;5.562;2023-07-09T11:04:08;101610.59;;;34.84;41.90
59513;BME280;45330;51.634;5.562;2023-07-09T11:06:42;101603.88;;;34.88;43.03
59513;BME280;45330;51.634;5.562;2023-07-09T11:09:24;101598.78;;;34.75;42.38
59513;BME280;45330;51.634;5.562;2023-07-09T11:11:55;101601.53;;;34.65;43.54
59513;BME280;45330;51.634;5.562;2023-07-09T11:14:26;101593.78;;;34.52;41.63
59513;BME280;45330;51.634;5.562;2023-07-09T11:16:56;101591.69;;;34.46;42.14
59513;BME280;45330;51.634;5.562;2023-07-09T11:19:23;101593.50;;;34.46;41.66
59513;BME280;45330;51.634;5.562;2023-07-09T11:27:23;101609.19;;;34.80;42.03
59513;BME280;45330;51.634;5.562;2023-07-09T11:30:01;101616.66;;;34.96;41.41
59513;BME280;45330;51.634;5.562;2023-07-09T11:32:27;101608.47;;;35.06;40.73
59513;BME280;45330;51.634;5.562;2023-07-09T11:34:53;101620.63;;;35.19;39.26
59513;BME280;45330;51.634;5.562;2023-07-09T11:37:25;101621.38;;;35.40;40.42
59513;BME280;45330;51.634;5.562;2023-07-09T11:39:51;101602.09;;;35.61;39.47
59513;BME280;45330;51.634;5.562;2023-07-09T11:42:34;101601.09;;;35.80;41.26
59513;BME280;45330;51.634;5.562;2023-07-09T11:45:04;101616.97;;;35.93;40.35
59513;BME280;45330;51.634;5.562;2023-07-09T11:47:38;101599.22;;;35.80;39.81
59513;BME280;45330;51.634;5.562;2023-07-09T11:50:23;101592.75;;;35.91;40.34
59513;BME280;45330;51.634;5.562;2023-07-09T11:52:56;101611.75;;;36.26;39.58
59513;BME280;45330;51.634;5.562;2023-07-09T11:55:42;101622.88;;;36.40;39.04
59513;BME280;45330;51.634;5.562;2023-07-09T11:58:10;101612.59;;;36.26;37.77
59513;BME280;45330;51.634;5.562;2023-07-09T12:01:09;101636.81;;;36.54;39.29
59513;BME280;45330;51.634;5.562;2023-07-09T12:03:42;101620.38;;;36.47;38.58
59513;BME280;45330;51.634;5.562;2023-07-09T12:06:27;101619.16;;;36.42;37.87
59513;BME280;45330;51.634;5.562;2023-07-09T12:08:54;101625.84;;;36.29;40.68
59513;BME280;45330;51.634;5.562;2023-07-09T12:11:20;101632.72;;;36.42;41.72
59513;BME280;45330;51.634;5.562;2023-07-09T12:13:46;101629.31;;;36.39;41.64
59513;BME280;45330;51.634;5.562;2023-07-09T12:18:47;101616.91;;;36.11;42.81
59513;BME280;45330;51.634;5.562;2023-07-09T12:21:13;101623.75;;;35.97;42.56
59513;BME280;45330;51.634;5.562;2023-07-09T12:23:39;101617.56;;;35.86;41.99
59513;BME280;45330;51.634;5.562;2023-07-09T12:26:05;101615.97;;;35.94;41.82
59513;BME280;45330;51.634;5.562;2023-07-09T12:28:32;101620.94;;;36.06;42.56
59513;BME280;45330;51.634;5.562;2023-07-09T12:30:58;101613.44;;;36.00;42.00
59513;BME280;45330;51.634;5.562;2023-07-09T12:33:27;101607.81;;;35.94;42.45
59513;BME280;45330;51.634;5.562;2023-07-09T12:35:58;101593.91;;;35.88;43.33
59513;BME280;45330;51.634;5.562;2023-07-09T12:38:26;101598.00;;;35.75;42.23
59513;BME280;45330;51.634;5.562;2023-07-09T12:40:53;101582.38;;;35.68;42.06
59513;BME280;45330;51.634;5.562;2023-07-09T12:43:31;101583.00;;;35.62;42.18
59513;BME280;45330;51.634;5.562;2023-07-09T12:45:58;101595.94;;;35.68;43.18
59513;BME280;45330;51.634;5.562;2023-07-09T12:48:26;101607.97;;;35.74;43.03
59513;BME280;45330;51.634;5.562;2023-07-09T12:50:57;101608.47;;;35.51;43.79
59513;BME280;45330;51.634;5.562;2023-07-09T12:53:25;101606.22;;;35.47;43.72
59513;BME280;45330;51.634;5.562;2023-07-09T12:55:58;101597.00;;;35.40;44.32
59513;BME280;45330;51.634;5.562;2023-07-09T12:58:28;101600.03;;;35.36;44.39
59513;BME280;45330;51.634;5.562;2023-07-09T13:00:55;101576.84;;;35.06;45.40
59513;BME280;45330;51.634;5.562;2023-07-09T13:03:27;101592.69;;;34.73;48.63
59513;BME280;45330;51.634;5.562;2023-07-09T13:05:57;101595.19;;;34.57;49.57
59513;BME280;45330;51.634;5.562;2023-07-09T13:08:27;101593.06;;;34.03;50.78
59513;BME280;45330;51.634;5.562;2023-07-09T13:10:53;101591.50;;;33.61;52.10
59513;BME280;45330;51.634;5.562;2023-07-09T13:13:21;101618.91;;;33.37;53.62
59513;BME280;45330;51.634;5.562;2023-07-09T13:15:55;101626.06;;;33.07;53.93
59513;BME280;45330;51.634;5.562;2023-07-09T13:18:26;101605.00;;;32.51;54.07
59513;BME280;45330;51.634;5.562;2023-07-09T13:20:53;101616.31;;;32.23;56.22
59513;BME280;45330;51.634;5.562;2023-07-09T13:23:28;101624.06;;;32.17;57.29
59513;BME280;45330;51.634;5.562;2023-07-09T13:25:55;101614.97;;;31.96;58.74